Mindoro — SVAS8 — position and weather

sailwx.info

Track history (hours):
 
Tides and Currents Weather Stations Pressure Air Temp Water Temp Dewpoint Dewpoint Depression Visibility Wind Speed Wind Dir Waves Ship Positions

Mindoro

Last reported at 2016-Sep-17 19:01 UTC. Time now 2016-Sep-25 07:12 UTC.
Position N 59°18' E 004°12'.

Length 245 m; draft 8.7 m.

Type: Ship (hazmat cat B). MMSI: 240924000.

Date/timePositionNaut miles runAvg speedWind from/ knotsBaromVisibWave heightAir tempDewpointWater temp
2016-Sep-17 19:01N 59°18' E 004°12'56 6.6
2016-Sep-17 10:29N 58°24' E 004°36'9 6.8
2016-Sep-17 09:09N 58°15' E 004°41'10 6.3
2016-Sep-17 07:32N 58°06' E 004°48'147 6.1
2016-Sep-16 07:30N 55°47' E 006°16'25 6.3
2016-Sep-16 03:33N 55°23' E 006°31'7 6.7
2016-Sep-16 02:33N 55°17' E 006°35'14 6.8
2016-Sep-16 00:34N 55°04' E 006°43'13 6.7
2016-Sep-15 22:33N 54°53' E 006°55'6 6.2
2016-Sep-15 21:34N 54°47' E 007°00'6 5.8
2016-Sep-15 20:33N 54°42' E 007°05'11 5.6
2016-Sep-15 18:34N 54°32' E 007°13'29 4.8
2016-Sep-15 12:32N 54°05' E 007°28'0 0.0
2016-Sep-15 11:33N 54°05' E 007°28'0 0.0
2016-Sep-15 04:32N 54°05' E 007°28'0 0.0
2016-Sep-15 03:32N 54°05' E 007°28'0 0.0
2016-Sep-15 01:32N 54°05' E 007°28'2 0.7
2016-Sep-14 22:33N 54°04' E 007°32'9 9.5
2016-Sep-14 21:33N 54°03' E 007°48'4511.3
2016-Sep-14 17:33N 53°52' E 009°02'5 4.9
2016-Sep-14 16:32N 53°53' E 009°10'0 0.0
2016-Sep-14 13:31N 53°53' E 009°10'0 0.0
2016-Sep-14 12:31N 53°53' E 009°10'0 0.0
2016-Sep-14 10:28N 53°53' E 009°10'0 0.0
2016-Sep-14 09:31N 53°53' E 009°10'0 0.0
2016-Sep-14 08:22N 53°53' E 009°10'0 0.0
2016-Sep-14 07:08N 53°53' E 009°10'0 0.0
2016-Sep-14 06:29N 53°53' E 009°10'0 0.0
2016-Sep-14 03:31N 53°53' E 009°10'0 0.0
2016-Sep-13 22:31N 53°53' E 009°10'0 0.0
2016-Sep-13 20:28N 53°53' E 009°10'0 0.0
2016-Sep-13 18:28N 53°53' E 009°10'0 0.0
2016-Sep-13 17:28N 53°53' E 009°10'0 0.0
2016-Sep-13 16:31N 53°53' E 009°10'0 0.0
2016-Sep-13 11:34N 53°53' E 009°10'16 7.8
2016-Sep-13 09:33N 53°52' E 008°44'2311.6
2016-Sep-13 07:33N 53°59' E 008°06'1212.4
2016-Sep-13 06:33N 54°03' E 007°46'2 0.7
2016-Sep-13 04:31N 54°04' E 007°44'0 0.1
2016-Sep-13 02:31N 54°04' E 007°44'0 0.0
2016-Sep-12 23:31N 54°04' E 007°44'0 0.0
2016-Sep-12 21:31N 54°04' E 007°44'0 0.1
2016-Sep-12 19:31N 54°04' E 007°44'0 0.0
2016-Sep-12 17:31N 54°04' E 007°44'0 0.0
2016-Sep-12 14:31N 54°04' E 007°44'0 0.1
2016-Sep-12 13:31N 54°04' E 007°44'0 0.0
2016-Sep-12 12:31N 54°04' E 007°44'0 0.0
2016-Sep-12 11:31N 54°04' E 007°44'0 0.0
2016-Sep-12 10:31N 54°04' E 007°44'0 0.0
2016-Sep-12 07:31N 54°04' E 007°44'0 0.1
2016-Sep-12 06:32N 54°04' E 007°44'0 0.0
2016-Sep-12 03:31N 54°04' E 007°44'0 0.1
2016-Sep-12 01:31N 54°04' E 007°44'0 0.0
2016-Sep-11 23:31N 54°04' E 007°44'0 0.0
2016-Sep-11 22:31N 54°04' E 007°44'0 0.0
2016-Sep-11 21:31N 54°04' E 007°44'0 0.0
2016-Sep-11 20:31N 54°04' E 007°44'0 0.2
2016-Sep-11 19:31N 54°04' E 007°44'0 0.0
2016-Sep-11 18:31N 54°04' E 007°44'0 0.0
2016-Sep-11 17:31N 54°04' E 007°44'0 0.0
2016-Sep-11 16:28N 54°04' E 007°44'0 0.0
2016-Sep-11 15:34N 54°04' E 007°44'0 0.0
2016-Sep-11 14:34N 54°04' E 007°44'0 0.0
2016-Sep-11 13:31N 54°04' E 007°44'0 0.1
2016-Sep-11 12:34N 54°04' E 007°44'0 0.1
2016-Sep-11 11:28N 54°04' E 007°44'0 0.0
2016-Sep-11 10:31N 54°04' E 007°44'0 0.1
2016-Sep-11 08:31N 54°04' E 007°44'0 0.1
2016-Sep-11 07:34N 54°04' E 007°44'0 0.0
2016-Sep-11 03:33N 54°04' E 007°44'0 0.0
2016-Sep-11 02:30N 54°04' E 007°44'0 0.0
2016-Sep-11 01:33N 54°04' E 007°44'0 0.0
2016-Sep-11 00:33N 54°04' E 007°44'0 0.1
2016-Sep-10 23:34N 54°04' E 007°44'2 1.6
2016-Sep-10 22:33N 54°05' E 007°42'5 5.2
2016-Sep-10 21:33N 54°08' E 007°35'1110.7
2016-Sep-10 20:33N 54°09' E 007°17'1111.0
2016-Sep-10 19:32N 54°09' E 006°58'1111.1
2016-Sep-10 18:33N 54°09' E 006°39'1111.3
2016-Sep-10 17:33N 54°08' E 006°20'1111.5
2016-Sep-10 16:33N 54°07' E 006°00'1211.8
2016-Sep-10 15:34N 54°05' E 005°40'1212.1
2016-Sep-10 14:33N 54°03' E 005°20'1212.2
2016-Sep-10 13:34N 54°02' E 004°59'1212.3
2016-Sep-10 12:33N 54°00' E 004°38'1712.3
2016-Sep-10 11:08N 53°58' E 004°09'1211.8
2016-Sep-10 10:09N 54°01' E 003°50'711.5
2016-Sep-10 09:33N 54°03' E 003°39'11311.1
2016-Sep-09 23:22N 54°21' E 000°28'1011.9
2016-Sep-09 22:34N 54°25' E 000°13'1211.9
2016-Sep-09 21:34N 54°30' W 000°05'1212.1
2016-Sep-09 20:33N 54°35' W 000°24'1712.0
2016-Sep-09 19:09N 54°43' W 000°50'2 3.9
2016-Sep-09 18:32N 54°44' W 000°54'0 0.1
2016-Sep-09 17:31N 54°44' W 000°54'0 0.0
2016-Sep-09 15:20N 54°44' W 000°54'0 0.0
2016-Sep-09 14:07N 54°44' W 000°54'0 0.0
2016-Sep-09 13:26N 54°44' W 000°54'0 0.1
2016-Sep-09 12:13N 54°44' W 000°54'0 0.1
2016-Sep-09 11:28N 54°44' W 000°54'0 0.2
2016-Sep-09 10:29N 54°44' W 000°54'0 0.0
2016-Sep-09 09:31N 54°44' W 000°54'0 0.0
2016-Sep-09 08:13N 54°44' W 000°54'0 0.0
2016-Sep-09 07:31N 54°44' W 000°54'0 0.0
2016-Sep-09 06:32N 54°44' W 000°54'0 0.1
2016-Sep-09 05:31N 54°44' W 000°54'0 0.1
2016-Sep-09 04:31N 54°44' W 000°54'0 0.1
2016-Sep-09 03:31N 54°44' W 000°54'0 0.0
2016-Sep-08 23:25N 54°44' W 000°54'0 0.3
2016-Sep-08 22:25N 54°44' W 000°54'0 0.0
2016-Sep-08 21:28N 54°44' W 000°54'0 0.0
2016-Sep-08 20:28N 54°44' W 000°54'0 0.0
2016-Sep-08 19:31N 54°44' W 000°54'0 0.0
2016-Sep-08 18:31N 54°44' W 000°54'0 0.1
2016-Sep-08 16:31N 54°44' W 000°54'0 0.0
2016-Sep-08 15:31N 54°44' W 000°54'0 0.2
2016-Sep-08 14:31N 54°44' W 000°54'0 0.0
2016-Sep-08 12:22N 54°44' W 000°54'0 0.1
2016-Sep-08 11:22N 54°44' W 000°54'0 0.1
2016-Sep-08 10:22N 54°44' W 000°54'0 0.1
2016-Sep-08 09:25N 54°44' W 000°54'0 0.0
2016-Sep-08 08:28N 54°44' W 000°54'0 0.0
2016-Sep-08 07:25N 54°44' W 000°54'0 0.1
2016-Sep-08 06:28N 54°44' W 000°54'0 0.2
2016-Sep-08 05:28N 54°44' W 000°54'0 0.0
2016-Sep-08 02:25N 54°44' W 000°55'0 0.0
2016-Sep-07 23:31N 54°44' W 000°54'0 0.1
2016-Sep-07 22:31N 54°44' W 000°54'0 0.1
2016-Sep-07 20:16N 54°44' W 000°54'0 0.0
2016-Sep-07 19:31N 54°44' W 000°54'  
Track history (hours):
 
Tides and Currents Weather Stations Pressure Air Temp Water Temp Dewpoint Dewpoint Depression Visibility Wind Speed Wind Dir Waves Ship Positions

Mindoro

Last reported at 2016-Sep-17 19:01 UTC. Time now 2016-Sep-25 07:12 UTC.
Position N 59°18' E 004°12'.

Length 245 m; draft 8.7 m.

Type: Ship (hazmat cat B). MMSI: 240924000.

Date/timePositionNaut miles runAvg speedWind from/ knotsBaromVisibWave heightAir tempDewpointWater temp
2016-Sep-17 19:01N 59°18' E 004°12'56 6.6
2016-Sep-17 10:29N 58°24' E 004°36'9 6.8
2016-Sep-17 09:09N 58°15' E 004°41'10 6.3
2016-Sep-17 07:32N 58°06' E 004°48'147 6.1
2016-Sep-16 07:30N 55°47' E 006°16'25 6.3
2016-Sep-16 03:33N 55°23' E 006°31'7 6.7
2016-Sep-16 02:33N 55°17' E 006°35'14 6.8
2016-Sep-16 00:34N 55°04' E 006°43'13 6.7
2016-Sep-15 22:33N 54°53' E 006°55'6 6.2
2016-Sep-15 21:34N 54°47' E 007°00'6 5.8
2016-Sep-15 20:33N 54°42' E 007°05'11 5.6
2016-Sep-15 18:34N 54°32' E 007°13'29 4.8
2016-Sep-15 12:32N 54°05' E 007°28'0 0.0
2016-Sep-15 11:33N 54°05' E 007°28'0 0.0
2016-Sep-15 04:32N 54°05' E 007°28'0 0.0
2016-Sep-15 03:32N 54°05' E 007°28'0 0.0
2016-Sep-15 01:32N 54°05' E 007°28'2 0.7
2016-Sep-14 22:33N 54°04' E 007°32'9 9.5
2016-Sep-14 21:33N 54°03' E 007°48'4511.3
2016-Sep-14 17:33N 53°52' E 009°02'5 4.9
2016-Sep-14 16:32N 53°53' E 009°10'0 0.0
2016-Sep-14 13:31N 53°53' E 009°10'0 0.0
2016-Sep-14 12:31N 53°53' E 009°10'0 0.0
2016-Sep-14 10:28N 53°53' E 009°10'0 0.0
2016-Sep-14 09:31N 53°53' E 009°10'0 0.0
2016-Sep-14 08:22N 53°53' E 009°10'0 0.0
2016-Sep-14 07:08N 53°53' E 009°10'0 0.0
2016-Sep-14 06:29N 53°53' E 009°10'0 0.0
2016-Sep-14 03:31N 53°53' E 009°10'0 0.0
2016-Sep-13 22:31N 53°53' E 009°10'0 0.0
2016-Sep-13 20:28N 53°53' E 009°10'0 0.0
2016-Sep-13 18:28N 53°53' E 009°10'0 0.0
2016-Sep-13 17:28N 53°53' E 009°10'0 0.0
2016-Sep-13 16:31N 53°53' E 009°10'0 0.0
2016-Sep-13 11:34N 53°53' E 009°10'16 7.8
2016-Sep-13 09:33N 53°52' E 008°44'2311.6
2016-Sep-13 07:33N 53°59' E 008°06'1212.4
2016-Sep-13 06:33N 54°03' E 007°46'2 0.7
2016-Sep-13 04:31N 54°04' E 007°44'0 0.1
2016-Sep-13 02:31N 54°04' E 007°44'0 0.0
2016-Sep-12 23:31N 54°04' E 007°44'0 0.0
2016-Sep-12 21:31N 54°04' E 007°44'0 0.1
2016-Sep-12 19:31N 54°04' E 007°44'0 0.0
2016-Sep-12 17:31N 54°04' E 007°44'0 0.0
2016-Sep-12 14:31N 54°04' E 007°44'0 0.1
2016-Sep-12 13:31N 54°04' E 007°44'0 0.0
2016-Sep-12 12:31N 54°04' E 007°44'0 0.0
2016-Sep-12 11:31N 54°04' E 007°44'0 0.0
2016-Sep-12 10:31N 54°04' E 007°44'0 0.0
2016-Sep-12 07:31N 54°04' E 007°44'0 0.1
2016-Sep-12 06:32N 54°04' E 007°44'0 0.0
2016-Sep-12 03:31N 54°04' E 007°44'0 0.1
2016-Sep-12 01:31N 54°04' E 007°44'0 0.0
2016-Sep-11 23:31N 54°04' E 007°44'0 0.0
2016-Sep-11 22:31N 54°04' E 007°44'0 0.0
2016-Sep-11 21:31N 54°04' E 007°44'0 0.0
2016-Sep-11 20:31N 54°04' E 007°44'0 0.2
2016-Sep-11 19:31N 54°04' E 007°44'0 0.0
2016-Sep-11 18:31N 54°04' E 007°44'0 0.0
2016-Sep-11 17:31N 54°04' E 007°44'0 0.0
2016-Sep-11 16:28N 54°04' E 007°44'0 0.0
2016-Sep-11 15:34N 54°04' E 007°44'0 0.0
2016-Sep-11 14:34N 54°04' E 007°44'0 0.0
2016-Sep-11 13:31N 54°04' E 007°44'0 0.1
2016-Sep-11 12:34N 54°04' E 007°44'0 0.1
2016-Sep-11 11:28N 54°04' E 007°44'0 0.0
2016-Sep-11 10:31N 54°04' E 007°44'0 0.1
2016-Sep-11 08:31N 54°04' E 007°44'0 0.1
2016-Sep-11 07:34N 54°04' E 007°44'0 0.0
2016-Sep-11 03:33N 54°04' E 007°44'0 0.0
2016-Sep-11 02:30N 54°04' E 007°44'0 0.0
2016-Sep-11 01:33N 54°04' E 007°44'0 0.0
2016-Sep-11 00:33N 54°04' E 007°44'0 0.1
2016-Sep-10 23:34N 54°04' E 007°44'2 1.6
2016-Sep-10 22:33N 54°05' E 007°42'5 5.2
2016-Sep-10 21:33N 54°08' E 007°35'1110.7
2016-Sep-10 20:33N 54°09' E 007°17'1111.0
2016-Sep-10 19:32N 54°09' E 006°58'1111.1
2016-Sep-10 18:33N 54°09' E 006°39'1111.3
2016-Sep-10 17:33N 54°08' E 006°20'1111.5
2016-Sep-10 16:33N 54°07' E 006°00'1211.8
2016-Sep-10 15:34N 54°05' E 005°40'1212.1
2016-Sep-10 14:33N 54°03' E 005°20'1212.2
2016-Sep-10 13:34N 54°02' E 004°59'1212.3
2016-Sep-10 12:33N 54°00' E 004°38'1712.3
2016-Sep-10 11:08N 53°58' E 004°09'1211.8
2016-Sep-10 10:09N 54°01' E 003°50'711.5
2016-Sep-10 09:33N 54°03' E 003°39'11311.1
2016-Sep-09 23:22N 54°21' E 000°28'1011.9
2016-Sep-09 22:34N 54°25' E 000°13'1211.9
2016-Sep-09 21:34N 54°30' W 000°05'1212.1
2016-Sep-09 20:33N 54°35' W 000°24'1712.0
2016-Sep-09 19:09N 54°43' W 000°50'2 3.9
2016-Sep-09 18:32N 54°44' W 000°54'0 0.1
2016-Sep-09 17:31N 54°44' W 000°54'0 0.0
2016-Sep-09 15:20N 54°44' W 000°54'0 0.0
2016-Sep-09 14:07N 54°44' W 000°54'0 0.0
2016-Sep-09 13:26N 54°44' W 000°54'0 0.1
2016-Sep-09 12:13N 54°44' W 000°54'0 0.1
2016-Sep-09 11:28N 54°44' W 000°54'0 0.2
2016-Sep-09 10:29N 54°44' W 000°54'0 0.0
2016-Sep-09 09:31N 54°44' W 000°54'0 0.0
2016-Sep-09 08:13N 54°44' W 000°54'0 0.0
2016-Sep-09 07:31N 54°44' W 000°54'0 0.0
2016-Sep-09 06:32N 54°44' W 000°54'0 0.1
2016-Sep-09 05:31N 54°44' W 000°54'0 0.1
2016-Sep-09 04:31N 54°44' W 000°54'0 0.1
2016-Sep-09 03:31N 54°44' W 000°54'0 0.0
2016-Sep-08 23:25N 54°44' W 000°54'0 0.3
2016-Sep-08 22:25N 54°44' W 000°54'0 0.0
2016-Sep-08 21:28N 54°44' W 000°54'0 0.0
2016-Sep-08 20:28N 54°44' W 000°54'0 0.0
2016-Sep-08 19:31N 54°44' W 000°54'0 0.0
2016-Sep-08 18:31N 54°44' W 000°54'0 0.1
2016-Sep-08 16:31N 54°44' W 000°54'0 0.0
2016-Sep-08 15:31N 54°44' W 000°54'0 0.2
2016-Sep-08 14:31N 54°44' W 000°54'0 0.0
2016-Sep-08 12:22N 54°44' W 000°54'0 0.1
2016-Sep-08 11:22N 54°44' W 000°54'0 0.1
2016-Sep-08 10:22N 54°44' W 000°54'0 0.1
2016-Sep-08 09:25N 54°44' W 000°54'0 0.0
2016-Sep-08 08:28N 54°44' W 000°54'0 0.0
2016-Sep-08 07:25N 54°44' W 000°54'0 0.1
2016-Sep-08 06:28N 54°44' W 000°54'0 0.2
2016-Sep-08 05:28N 54°44' W 000°54'0 0.0
2016-Sep-08 02:25N 54°44' W 000°55'0 0.0
2016-Sep-07 23:31N 54°44' W 000°54'0 0.1
2016-Sep-07 22:31N 54°44' W 000°54'0 0.1
2016-Sep-07 20:16N 54°44' W 000°54'0 0.0
2016-Sep-07 19:31N 54°44' W 000°54'  

Dump ship's entire track history